sensor_id;sensor_type;location;lat;lon;timestamp;P1;durP1;ratioP1;P2;durP2;ratioP2
14994;SDS011;7593;49.006;8.372;2022-10-23T00:01:18;10.68;;;5.60;;
14994;SDS011;7593;49.006;8.372;2022-10-23T00:03:49;8.18;;;5.15;;
14994;SDS011;7593;49.006;8.372;2022-10-23T00:06:16;10.18;;;6.43;;
14994;SDS011;7593;49.006;8.372;2022-10-23T00:08:44;8.48;;;5.10;;
14994;SDS011;7593;49.006;8.372;2022-10-23T00:11:12;6.28;;;4.50;;
14994;SDS011;7593;49.006;8.372;2022-10-23T00:13:42;9.25;;;5.30;;
14994;SDS011;7593;49.006;8.372;2022-10-23T00:16:09;10.80;;;4.65;;
14994;SDS011;7593;49.006;8.372;2022-10-23T00:18:37;11.05;;;5.07;;
14994;SDS011;7593;49.006;8.372;2022-10-23T00:21:05;6.65;;;4.50;;
14994;SDS011;7593;49.006;8.372;2022-10-23T00:23:37;8.38;;;4.50;;
14994;SDS011;7593;49.006;8.372;2022-10-23T00:26:04;9.80;;;5.35;;
14994;SDS011;7593;49.006;8.372;2022-10-23T00:28:35;11.45;;;5.35;;
14994;SDS011;7593;49.006;8.372;2022-10-23T00:31:02;10.27;;;5.00;;
14994;SDS011;7593;49.006;8.372;2022-10-23T00:33:29;6.82;;;4.15;;
14994;SDS011;7593;49.006;8.372;2022-10-23T00:35:58;8.15;;;5.03;;
14994;SDS011;7593;49.006;8.372;2022-10-23T00:38:25;11.10;;;4.65;;
14994;SDS011;7593;49.006;8.372;2022-10-23T00:40:52;9.05;;;4.50;;
14994;SDS011;7593;49.006;8.372;2022-10-23T00:43:19;7.68;;;4.70;;
14994;SDS011;7593;49.006;8.372;2022-10-23T00:45:47;8.65;;;4.60;;
14994;SDS011;7593;49.006;8.372;2022-10-23T00:48:14;7.22;;;4.53;;
14994;SDS011;7593;49.006;8.372;2022-10-23T00:50:42;8.57;;;4.80;;
14994;SDS011;7593;49.006;8.372;2022-10-23T00:53:11;10.27;;;4.85;;
14994;SDS011;7593;49.006;8.372;2022-10-23T00:55:38;9.27;;;5.15;;
14994;SDS011;7593;49.006;8.372;2022-10-23T00:58:10;8.00;;;4.95;;
14994;SDS011;7593;49.006;8.372;2022-10-23T01:00:42;10.27;;;5.65;;
14994;SDS011;7593;49.006;8.372;2022-10-23T01:03:10;9.52;;;4.88;;
14994;SDS011;7593;49.006;8.372;2022-10-23T01:05:40;9.73;;;5.40;;
14994;SDS011;7593;49.006;8.372;2022-10-23T01:08:16;7.82;;;5.57;;
14994;SDS011;7593;49.006;8.372;2022-10-23T01:10:50;8.50;;;5.60;;
14994;SDS011;7593;49.006;8.372;2022-10-23T01:13:21;8.00;;;5.50;;
14994;SDS011;7593;49.006;8.372;2022-10-23T01:15:57;9.77;;;6.45;;
14994;SDS011;7593;49.006;8.372;2022-10-23T01:18:29;8.65;;;6.32;;
14994;SDS011;7593;49.006;8.372;2022-10-23T01:21:04;11.75;;;5.88;;
14994;SDS011;7593;49.006;8.372;2022-10-23T01:23:54;9.73;;;6.05;;
14994;SDS011;7593;49.006;8.372;2022-10-23T01:26:33;11.05;;;7.82;;
14994;SDS011;7593;49.006;8.372;2022-10-23T01:29:11;20.02;;;9.00;;
14994;SDS011;7593;49.006;8.372;2022-10-23T01:31:45;9.07;;;6.40;;
14994;SDS011;7593;49.006;8.372;2022-10-23T01:34:17;12.02;;;6.30;;
14994;SDS011;7593;49.006;8.372;2022-10-23T01:36:48;10.48;;;6.75;;
14994;SDS011;7593;49.006;8.372;2022-10-23T01:39:17;13.43;;;5.97;;
14994;SDS011;7593;49.006;8.372;2022-10-23T01:41:49;11.38;;;6.22;;
14994;SDS011;7593;49.006;8.372;2022-10-23T01:44:22;11.23;;;6.07;;
14994;SDS011;7593;49.006;8.372;2022-10-23T01:46:51;9.70;;;5.85;;
14994;SDS011;7593;49.006;8.372;2022-10-23T01:49:20;9.70;;;6.10;;
14994;SDS011;7593;49.006;8.372;2022-10-23T01:51:49;13.65;;;5.55;;
14994;SDS011;7593;49.006;8.372;2022-10-23T01:54:19;12.30;;;5.88;;
14994;SDS011;7593;49.006;8.372;2022-10-23T01:56:49;8.90;;;5.47;;
14994;SDS011;7593;49.006;8.372;2022-10-23T01:59:18;10.98;;;6.15;;
14994;SDS011;7593;49.006;8.372;2022-10-23T02:01:50;10.02;;;5.75;;
14994;SDS011;7593;49.006;8.372;2022-10-23T02:04:21;8.65;;;5.90;;
14994;SDS011;7593;49.006;8.372;2022-10-23T02:06:52;11.35;;;5.90;;
14994;SDS011;7593;49.006;8.372;2022-10-23T02:09:19;8.10;;;5.60;;
14994;SDS011;7593;49.006;8.372;2022-10-23T02:11:47;8.15;;;5.50;;
14994;SDS011;7593;49.006;8.372;2022-10-23T02:14:19;11.43;;;5.70;;
14994;SDS011;7593;49.006;8.372;2022-10-23T02:16:54;9.85;;;5.25;;
14994;SDS011;7593;49.006;8.372;2022-10-23T02:19:27;6.72;;;5.18;;
14994;SDS011;7593;49.006;8.372;2022-10-23T02:21:59;11.57;;;5.05;;
14994;SDS011;7593;49.006;8.372;2022-10-23T02:24:34;8.57;;;5.05;;
14994;SDS011;7593;49.006;8.372;2022-10-23T02:27:06;11.95;;;5.30;;
14994;SDS011;7593;49.006;8.372;2022-10-23T02:29:40;9.27;;;5.70;;
14994;SDS011;7593;49.006;8.372;2022-10-23T02:32:11;10.20;;;5.00;;
14994;SDS011;7593;49.006;8.372;2022-10-23T02:34:40;7.63;;;4.88;;
14994;SDS011;7593;49.006;8.372;2022-10-23T02:37:07;7.93;;;4.57;;
14994;SDS011;7593;49.006;8.372;2022-10-23T02:39:34;6.72;;;4.93;;
14994;SDS011;7593;49.006;8.372;2022-10-23T02:42:02;8.95;;;4.47;;
14994;SDS011;7593;49.006;8.372;2022-10-23T02:44:38;10.60;;;4.80;;
14994;SDS011;7593;49.006;8.372;2022-10-23T02:47:16;11.02;;;4.53;;
14994;SDS011;7593;49.006;8.372;2022-10-23T02:49:56;9.98;;;4.65;;
14994;SDS011;7593;49.006;8.372;2022-10-23T02:52:29;7.70;;;4.95;;
14994;SDS011;7593;49.006;8.372;2022-10-23T02:55:13;7.85;;;4.45;;
14994;SDS011;7593;49.006;8.372;2022-10-23T02:57:48;9.02;;;4.80;;
14994;SDS011;7593;49.006;8.372;2022-10-23T03:00:21;7.97;;;4.50;;
14994;SDS011;7593;49.006;8.372;2022-10-23T03:02:50;8.88;;;4.32;;
14994;SDS011;7593;49.006;8.372;2022-10-23T03:05:21;7.57;;;4.50;;
14994;SDS011;7593;49.006;8.372;2022-10-23T03:07:52;11.45;;;4.78;;
14994;SDS011;7593;49.006;8.372;2022-10-23T03:10:19;6.60;;;4.15;;
14994;SDS011;7593;49.006;8.372;2022-10-23T03:12:45;8.93;;;4.72;;
14994;SDS011;7593;49.006;8.372;2022-10-23T03:15:13;6.40;;;4.35;;
14994;SDS011;7593;49.006;8.372;2022-10-23T03:17:42;9.60;;;4.65;;
14994;SDS011;7593;49.006;8.372;2022-10-23T03:20:09;8.93;;;4.35;;
14994;SDS011;7593;49.006;8.372;2022-10-23T03:22:36;9.20;;;4.60;;
14994;SDS011;7593;49.006;8.372;2022-10-23T03:25:04;9.23;;;4.57;;
14994;SDS011;7593;49.006;8.372;2022-10-23T03:27:31;6.88;;;4.38;;
14994;SDS011;7593;49.006;8.372;2022-10-23T03:29:59;10.48;;;5.00;;
14994;SDS011;7593;49.006;8.372;2022-10-23T03:32:25;6.85;;;4.60;;
14994;SDS011;7593;49.006;8.372;2022-10-23T03:34:53;7.55;;;4.32;;
14994;SDS011;7593;49.006;8.372;2022-10-23T03:37:20;9.20;;;4.90;;
14994;SDS011;7593;49.006;8.372;2022-10-23T03:39:47;12.32;;;4.30;;
14994;SDS011;7593;49.006;8.372;2022-10-23T03:42:14;8.55;;;4.43;;
14994;SDS011;7593;49.006;8.372;2022-10-23T03:44:41;7.85;;;4.70;;
14994;SDS011;7593;49.006;8.372;2022-10-23T03:47:07;9.45;;;4.80;;
14994;SDS011;7593;49.006;8.372;2022-10-23T03:49:35;8.43;;;4.35;;
14994;SDS011;7593;49.006;8.372;2022-10-23T03:52:04;8.35;;;4.47;;
14994;SDS011;7593;49.006;8.372;2022-10-23T03:54:30;9.93;;;4.32;;
14994;SDS011;7593;49.006;8.372;2022-10-23T03:56:58;8.40;;;4.28;;
14994;SDS011;7593;49.006;8.372;2022-10-23T03:59:25;6.95;;;4.28;;
14994;SDS011;7593;49.006;8.372;2022-10-23T04:01:53;12.48;;;4.35;;
14994;SDS011;7593;49.006;8.372;2022-10-23T04:04:20;9.07;;;4.85;;
14994;SDS011;7593;49.006;8.372;2022-10-23T04:06:47;8.02;;;3.95;;
14994;SDS011;7593;49.006;8.372;2022-10-23T04:09:15;4.97;;;3.80;;
14994;SDS011;7593;49.006;8.372;2022-10-23T04:11:41;6.03;;;3.92;;
14994;SDS011;7593;49.006;8.372;2022-10-23T04:14:09;9.63;;;4.50;;
14994;SDS011;7593;49.006;8.372;2022-10-23T04:16:37;8.82;;;4.15;;
14994;SDS011;7593;49.006;8.372;2022-10-23T04:19:04;7.88;;;4.25;;
14994;SDS011;7593;49.006;8.372;2022-10-23T04:21:31;7.82;;;4.82;;
14994;SDS011;7593;49.006;8.372;2022-10-23T04:23:58;8.68;;;4.40;;
14994;SDS011;7593;49.006;8.372;2022-10-23T04:26:26;7.07;;;4.30;;
14994;SDS011;7593;49.006;8.372;2022-10-23T04:28:52;8.68;;;4.13;;
14994;SDS011;7593;49.006;8.372;2022-10-23T04:31:19;9.65;;;4.65;;
14994;SDS011;7593;49.006;8.372;2022-10-23T04:33:46;10.35;;;4.45;;
14994;SDS011;7593;49.006;8.372;2022-10-23T04:36:13;8.80;;;4.35;;
14994;SDS011;7593;49.006;8.372;2022-10-23T04:38:39;7.35;;;3.97;;
14994;SDS011;7593;49.006;8.372;2022-10-23T04:41:06;6.00;;;4.80;;
14994;SDS011;7593;49.006;8.372;2022-10-23T04:43:34;5.90;;;4.25;;
14994;SDS011;7593;49.006;8.372;2022-10-23T04:46:01;8.95;;;4.20;;
14994;SDS011;7593;49.006;8.372;2022-10-23T04:48:28;10.40;;;4.63;;
14994;SDS011;7593;49.006;8.372;2022-10-23T04:50:55;15.73;;;5.18;;
14994;SDS011;7593;49.006;8.372;2022-10-23T04:53:23;8.05;;;4.82;;
14994;SDS011;7593;49.006;8.372;2022-10-23T04:55:50;6.28;;;4.20;;
14994;SDS011;7593;49.006;8.372;2022-10-23T04:58:18;8.98;;;4.40;;
14994;SDS011;7593;49.006;8.372;2022-10-23T05:00:47;10.15;;;4.47;;
14994;SDS011;7593;49.006;8.372;2022-10-23T05:03:14;11.27;;;4.38;;
14994;SDS011;7593;49.006;8.372;2022-10-23T05:05:41;11.13;;;4.07;;
14994;SDS011;7593;49.006;8.372;2022-10-23T05:08:08;11.75;;;4.53;;
14994;SDS011;7593;49.006;8.372;2022-10-23T05:10:35;9.82;;;4.78;;
14994;SDS011;7593;49.006;8.372;2022-10-23T05:13:02;9.63;;;4.13;;
14994;SDS011;7593;49.006;8.372;2022-10-23T05:15:30;9.55;;;4.07;;
14994;SDS011;7593;49.006;8.372;2022-10-23T05:17:58;7.10;;;4.15;;
14994;SDS011;7593;49.006;8.372;2022-10-23T05:20:33;5.90;;;4.22;;
14994;SDS011;7593;49.006;8.372;2022-10-23T05:23:03;8.98;;;3.78;;
14994;SDS011;7593;49.006;8.372;2022-10-23T05:25:34;7.57;;;4.03;;
14994;SDS011;7593;49.006;8.372;2022-10-23T05:28:01;5.57;;;4.10;;
14994;SDS011;7593;49.006;8.372;2022-10-23T05:30:27;6.22;;;3.88;;
14994;SDS011;7593;49.006;8.372;2022-10-23T05:32:58;8.48;;;4.10;;
14994;SDS011;7593;49.006;8.372;2022-10-23T05:35:25;6.60;;;4.13;;
14994;SDS011;7593;49.006;8.372;2022-10-23T05:37:53;8.77;;;4.55;;
14994;SDS011;7593;49.006;8.372;2022-10-23T05:40:22;5.93;;;4.13;;
14994;SDS011;7593;49.006;8.372;2022-10-23T05:42:49;8.00;;;3.92;;
14994;SDS011;7593;49.006;8.372;2022-10-23T05:45:15;9.25;;;4.20;;
14994;SDS011;7593;49.006;8.372;2022-10-23T05:47:42;5.50;;;3.92;;
14994;SDS011;7593;49.006;8.372;2022-10-23T05:50:11;13.48;;;4.32;;
14994;SDS011;7593;49.006;8.372;2022-10-23T05:52:38;12.45;;;4.70;;
14994;SDS011;7593;49.006;8.372;2022-10-23T05:55:05;10.32;;;4.07;;
14994;SDS011;7593;49.006;8.372;2022-10-23T05:57:32;7.93;;;3.92;;
14994;SDS011;7593;49.006;8.372;2022-10-23T05:59:59;8.32;;;4.32;;
14994;SDS011;7593;49.006;8.372;2022-10-23T06:02:26;7.00;;;4.35;;
14994;SDS011;7593;49.006;8.372;2022-10-23T06:04:53;6.22;;;4.10;;
14994;SDS011;7593;49.006;8.372;2022-10-23T06:07:23;5.85;;;3.92;;
14994;SDS011;7593;49.006;8.372;2022-10-23T06:09:50;6.68;;;4.03;;
14994;SDS011;7593;49.006;8.372;2022-10-23T06:12:18;5.43;;;4.00;;
14994;SDS011;7593;49.006;8.372;2022-10-23T06:14:45;8.20;;;4.18;;
14994;SDS011;7593;49.006;8.372;2022-10-23T06:17:12;6.63;;;4.22;;
14994;SDS011;7593;49.006;8.372;2022-10-23T06:19:38;11.57;;;4.30;;
14994;SDS011;7593;49.006;8.372;2022-10-23T06:22:05;7.75;;;3.90;;
14994;SDS011;7593;49.006;8.372;2022-10-23T06:24:33;6.65;;;4.07;;
14994;SDS011;7593;49.006;8.372;2022-10-23T06:27:00;5.25;;;3.92;;
14994;SDS011;7593;49.006;8.372;2022-10-23T06:29:27;6.43;;;3.30;;
14994;SDS011;7593;49.006;8.372;2022-10-23T06:31:53;6.97;;;3.45;;
14994;SDS011;7593;49.006;8.372;2022-10-23T06:34:20;4.80;;;3.70;;
14994;SDS011;7593;49.006;8.372;2022-10-23T06:36:47;15.20;;;4.30;;
14994;SDS011;7593;49.006;8.372;2022-10-23T06:39:14;5.53;;;3.88;;
14994;SDS011;7593;49.006;8.372;2022-10-23T06:41:42;8.40;;;3.67;;
14994;SDS011;7593;49.006;8.372;2022-10-23T06:44:09;7.55;;;3.97;;
14994;SDS011;7593;49.006;8.372;2022-10-23T06:46:36;10.10;;;4.55;;
14994;SDS011;7593;49.006;8.372;2022-10-23T06:49:03;8.45;;;3.90;;
14994;SDS011;7593;49.006;8.372;2022-10-23T06:51:29;7.10;;;3.60;;
14994;SDS011;7593;49.006;8.372;2022-10-23T06:53:56;5.88;;;3.80;;
14994;SDS011;7593;49.006;8.372;2022-10-23T06:56:23;10.23;;;4.72;;
14994;SDS011;7593;49.006;8.372;2022-10-23T06:58:54;10.93;;;5.72;;
14994;SDS011;7593;49.006;8.372;2022-10-23T07:01:21;8.45;;;6.00;;
14994;SDS011;7593;49.006;8.372;2022-10-23T07:03:48;7.90;;;6.32;;
14994;SDS011;7593;49.006;8.372;2022-10-23T07:06:14;8.75;;;5.78;;
14994;SDS011;7593;49.006;8.372;2022-10-23T07:08:41;30.70;;;7.82;;
14994;SDS011;7593;49.006;8.372;2022-10-23T07:11:09;7.35;;;4.30;;
14994;SDS011;7593;49.006;8.372;2022-10-23T07:13:37;5.45;;;4.60;;
14994;SDS011;7593;49.006;8.372;2022-10-23T07:16:09;7.20;;;4.25;;
14994;SDS011;7593;49.006;8.372;2022-10-23T07:18:37;6.93;;;4.50;;
14994;SDS011;7593;49.006;8.372;2022-10-23T07:21:04;6.93;;;4.18;;
14994;SDS011;7593;49.006;8.372;2022-10-23T07:23:31;5.93;;;4.03;;
14994;SDS011;7593;49.006;8.372;2022-10-23T07:26:01;7.75;;;3.72;;
14994;SDS011;7593;49.006;8.372;2022-10-23T07:28:29;5.15;;;3.83;;
14994;SDS011;7593;49.006;8.372;2022-10-23T07:30:56;8.70;;;3.97;;
14994;SDS011;7593;49.006;8.372;2022-10-23T07:33:25;8.15;;;3.50;;
14994;SDS011;7593;49.006;8.372;2022-10-23T07:35:51;9.88;;;3.70;;
14994;SDS011;7593;49.006;8.372;2022-10-23T07:38:22;8.10;;;4.18;;
14994;SDS011;7593;49.006;8.372;2022-10-23T07:40:49;8.27;;;4.20;;
14994;SDS011;7593;49.006;8.372;2022-10-23T07:43:15;7.15;;;3.85;;
14994;SDS011;7593;49.006;8.372;2022-10-23T07:45:45;5.57;;;3.78;;
14994;SDS011;7593;49.006;8.372;2022-10-23T07:48:12;10.95;;;4.60;;
14994;SDS011;7593;49.006;8.372;2022-10-23T07:50:40;9.00;;;4.05;;
14994;SDS011;7593;49.006;8.372;2022-10-23T07:53:08;8.57;;;3.92;;
14994;SDS011;7593;49.006;8.372;2022-10-23T07:55:39;7.05;;;3.88;;
14994;SDS011;7593;49.006;8.372;2022-10-23T07:58:06;7.03;;;3.63;;
14994;SDS011;7593;49.006;8.372;2022-10-23T08:00:33;7.93;;;3.28;;
14994;SDS011;7593;49.006;8.372;2022-10-23T08:03:00;7.47;;;3.65;;
14994;SDS011;7593;49.006;8.372;2022-10-23T08:05:26;6.50;;;3.55;;
14994;SDS011;7593;49.006;8.372;2022-10-23T08:07:54;6.70;;;3.13;;
14994;SDS011;7593;49.006;8.372;2022-10-23T08:10:21;8.75;;;3.42;;
14994;SDS011;7593;49.006;8.372;2022-10-23T08:12:48;6.40;;;3.05;;
14994;SDS011;7593;49.006;8.372;2022-10-23T08:15:15;5.25;;;3.83;;
14994;SDS011;7593;49.006;8.372;2022-10-23T08:17:41;6.88;;;3.83;;
14994;SDS011;7593;49.006;8.372;2022-10-23T08:20:08;7.80;;;3.83;;
14994;SDS011;7593;49.006;8.372;2022-10-23T08:22:37;7.70;;;3.65;;
14994;SDS011;7593;49.006;8.372;2022-10-23T08:25:06;7.00;;;3.50;;
14994;SDS011;7593;49.006;8.372;2022-10-23T08:27:33;7.88;;;3.97;;
14994;SDS011;7593;49.006;8.372;2022-10-23T08:30:00;6.25;;;2.97;;
14994;SDS011;7593;49.006;8.372;2022-10-23T08:32:27;8.68;;;3.58;;
14994;SDS011;7593;49.006;8.372;2022-10-23T08:34:54;15.80;;;4.45;;
14994;SDS011;7593;49.006;8.372;2022-10-23T08:37:21;4.57;;;3.45;;
14994;SDS011;7593;49.006;8.372;2022-10-23T08:39:48;5.72;;;3.67;;
14994;SDS011;7593;49.006;8.372;2022-10-23T08:42:19;6.18;;;3.05;;
14994;SDS011;7593;49.006;8.372;2022-10-23T08:44:50;12.00;;;3.33;;
14994;SDS011;7593;49.006;8.372;2022-10-23T08:47:25;7.25;;;2.90;;
14994;SDS011;7593;49.006;8.372;2022-10-23T08:49:58;4.85;;;3.00;;
14994;SDS011;7593;49.006;8.372;2022-10-23T08:52:29;4.15;;;3.22;;
14994;SDS011;7593;49.006;8.372;2022-10-23T08:55:04;6.43;;;3.30;;
14994;SDS011;7593;49.006;8.372;2022-10-23T08:57:41;4.95;;;3.25;;
14994;SDS011;7593;49.006;8.372;2022-10-23T09:00:14;6.35;;;3.08;;
14994;SDS011;7593;49.006;8.372;2022-10-23T09:02:43;8.07;;;3.20;;
14994;SDS011;7593;49.006;8.372;2022-10-23T09:05:13;5.15;;;2.80;;
14994;SDS011;7593;49.006;8.372;2022-10-23T09:07:45;6.35;;;3.28;;
14994;SDS011;7593;49.006;8.372;2022-10-23T09:10:31;7.57;;;3.08;;
14994;SDS011;7593;49.006;8.372;2022-10-23T09:13:12;6.45;;;3.20;;
14994;SDS011;7593;49.006;8.372;2022-10-23T09:15:47;4.03;;;2.40;;
14994;SDS011;7593;49.006;8.372;2022-10-23T09:18:22;8.73;;;2.70;;
14994;SDS011;7593;49.006;8.372;2022-10-23T09:20:49;6.35;;;2.63;;
14994;SDS011;7593;49.006;8.372;2022-10-23T09:23:18;2.83;;;2.50;;
14994;SDS011;7593;49.006;8.372;2022-10-23T09:25:47;6.93;;;2.78;;
14994;SDS011;7593;49.006;8.372;2022-10-23T09:28:21;4.40;;;2.67;;
14994;SDS011;7593;49.006;8.372;2022-10-23T09:30:49;7.07;;;2.75;;
14994;SDS011;7593;49.006;8.372;2022-10-23T09:33:18;4.97;;;2.92;;
14994;SDS011;7593;49.006;8.372;2022-10-23T09:35:50;3.70;;;2.40;;
14994;SDS011;7593;49.006;8.372;2022-10-23T09:38:25;5.38;;;2.70;;
14994;SDS011;7593;49.006;8.372;2022-10-23T09:40:53;6.80;;;2.63;;
14994;SDS011;7593;49.006;8.372;2022-10-23T09:43:22;6.40;;;2.58;;
14994;SDS011;7593;49.006;8.372;2022-10-23T09:45:55;6.10;;;2.63;;
14994;SDS011;7593;49.006;8.372;2022-10-23T09:48:24;4.40;;;2.63;;
14994;SDS011;7593;49.006;8.372;2022-10-23T09:50:51;5.90;;;2.53;;
14994;SDS011;7593;49.006;8.372;2022-10-23T09:53:22;11.38;;;2.97;;
14994;SDS011;7593;49.006;8.372;2022-10-23T09:55:54;9.25;;;2.58;;
14994;SDS011;7593;49.006;8.372;2022-10-23T09:58:26;3.17;;;2.25;;
14994;SDS011;7593;49.006;8.372;2022-10-23T10:00:56;6.07;;;2.75;;
14994;SDS011;7593;49.006;8.372;2022-10-23T10:03:23;3.88;;;2.38;;
14994;SDS011;7593;49.006;8.372;2022-10-23T10:05:54;8.63;;;2.15;;
14994;SDS011;7593;49.006;8.372;2022-10-23T10:08:24;4.03;;;2.13;;
14994;SDS011;7593;49.006;8.372;2022-10-23T10:10:59;6.35;;;2.35;;
14994;SDS011;7593;49.006;8.372;2022-10-23T10:13:33;2.97;;;1.80;;
14994;SDS011;7593;49.006;8.372;2022-10-23T10:16:14;4.18;;;2.00;;
14994;SDS011;7593;49.006;8.372;2022-10-23T10:18:52;4.10;;;1.92;;
14994;SDS011;7593;49.006;8.372;2022-10-23T10:21:27;6.20;;;1.85;;
14994;SDS011;7593;49.006;8.372;2022-10-23T10:23:58;2.90;;;2.05;;
14994;SDS011;7593;49.006;8.372;2022-10-23T10:26:31;5.53;;;1.90;;
14994;SDS011;7593;49.006;8.372;2022-10-23T10:29:07;10.15;;;2.30;;
14994;SDS011;7593;49.006;8.372;2022-10-23T10:31:45;6.22;;;1.73;;
14994;SDS011;7593;49.006;8.372;2022-10-23T10:34:21;3.42;;;1.63;;
14994;SDS011;7593;49.006;8.372;2022-10-23T10:36:55;2.95;;;1.52;;
14994;SDS011;7593;49.006;8.372;2022-10-23T10:39:30;4.35;;;1.98;;
14994;SDS011;7593;49.006;8.372;2022-10-23T10:42:19;3.25;;;1.50;;
14994;SDS011;7593;49.006;8.372;2022-10-23T10:44:59;6.88;;;1.95;;
14994;SDS011;7593;49.006;8.372;2022-10-23T10:47:40;3.03;;;1.85;;
14994;SDS011;7593;49.006;8.372;2022-10-23T10:50:16;4.68;;;1.70;;
14994;SDS011;7593;49.006;8.372;2022-10-23T10:52:49;4.63;;;2.13;;
14994;SDS011;7593;49.006;8.372;2022-10-23T10:55:25;4.07;;;1.90;;
14994;SDS011;7593;49.006;8.372;2022-10-23T10:57:56;2.95;;;1.60;;
14994;SDS011;7593;49.006;8.372;2022-10-23T11:00:26;4.05;;;2.00;;
14994;SDS011;7593;49.006;8.372;2022-10-23T11:02:56;4.80;;;1.90;;
14994;SDS011;7593;49.006;8.372;2022-10-23T11:05:28;8.68;;;1.92;;
14994;SDS011;7593;49.006;8.372;2022-10-23T11:07:58;4.95;;;1.95;;
14994;SDS011;7593;49.006;8.372;2022-10-23T11:10:27;4.72;;;1.90;;
14994;SDS011;7593;49.006;8.372;2022-10-23T11:12:55;3.75;;;2.00;;
14994;SDS011;7593;49.006;8.372;2022-10-23T11:15:24;5.30;;;2.08;;
14994;SDS011;7593;49.006;8.372;2022-10-23T11:18:04;2.90;;;2.00;;
14994;SDS011;7593;49.006;8.372;2022-10-23T11:20:44;4.25;;;1.75;;
14994;SDS011;7593;49.006;8.372;2022-10-23T11:23:35;5.00;;;1.80;;
14994;SDS011;7593;49.006;8.372;2022-10-23T11:26:22;6.80;;;2.13;;
14994;SDS011;7593;49.006;8.372;2022-10-23T11:29:11;4.70;;;1.90;;
14994;SDS011;7593;49.006;8.372;2022-10-23T11:31:53;4.93;;;1.92;;
14994;SDS011;7593;49.006;8.372;2022-10-23T11:34:37;3.22;;;1.75;;
14994;SDS011;7593;49.006;8.372;2022-10-23T11:37:14;3.13;;;1.58;;
14994;SDS011;7593;49.006;8.372;2022-10-23T11:39:52;4.40;;;1.70;;
14994;SDS011;7593;49.006;8.372;2022-10-23T11:42:29;6.00;;;1.40;;
14994;SDS011;7593;49.006;8.372;2022-10-23T11:44:58;2.90;;;1.42;;
14994;SDS011;7593;49.006;8.372;2022-10-23T11:47:27;3.80;;;1.63;;
14994;SDS011;7593;49.006;8.372;2022-10-23T11:50:10;2.28;;;1.30;;
14994;SDS011;7593;49.006;8.372;2022-10-23T11:52:51;2.45;;;1.50;;
14994;SDS011;7593;49.006;8.372;2022-10-23T11:55:24;4.47;;;1.60;;
14994;SDS011;7593;49.006;8.372;2022-10-23T11:58:07;3.35;;;1.80;;
14994;SDS011;7593;49.006;8.372;2022-10-23T12:00:51;2.58;;;1.50;;
14994;SDS011;7593;49.006;8.372;2022-10-23T12:03:23;3.70;;;1.63;;
14994;SDS011;7593;49.006;8.372;2022-10-23T12:05:58;3.55;;;1.42;;
14994;SDS011;7593;49.006;8.372;2022-10-23T12:08:29;1.77;;;1.52;;
14994;SDS011;7593;49.006;8.372;2022-10-23T12:10:57;4.05;;;1.40;;
14994;SDS011;7593;49.006;8.372;2022-10-23T12:13:28;4.05;;;1.70;;
14994;SDS011;7593;49.006;8.372;2022-10-23T12:15:57;3.05;;;1.50;;
14994;SDS011;7593;49.006;8.372;2022-10-23T12:18:25;6.05;;;1.80;;
14994;SDS011;7593;49.006;8.372;2022-10-23T12:20:53;3.70;;;1.98;;
14994;SDS011;7593;49.006;8.372;2022-10-23T12:23:28;4.65;;;1.80;;
14994;SDS011;7593;49.006;8.372;2022-10-23T12:29:04;6.35;;;2.10;;
14994;SDS011;7593;49.006;8.372;2022-10-23T12:31:39;6.50;;;2.35;;
14994;SDS011;7593;49.006;8.372;2022-10-23T12:34:19;6.22;;;1.90;;
14994;SDS011;7593;49.006;8.372;2022-10-23T12:36:59;2.70;;;1.80;;
14994;SDS011;7593;49.006;8.372;2022-10-23T12:39:35;4.70;;;1.80;;
14994;SDS011;7593;49.006;8.372;2022-10-23T12:42:03;5.47;;;1.90;;
14994;SDS011;7593;49.006;8.372;2022-10-23T12:44:31;4.13;;;1.95;;
14994;SDS011;7593;49.006;8.372;2022-10-23T12:46:59;3.05;;;1.70;;
14994;SDS011;7593;49.006;8.372;2022-10-23T12:49:30;5.05;;;1.75;;
14994;SDS011;7593;49.006;8.372;2022-10-23T12:51:59;3.63;;;2.00;;
14994;SDS011;7593;49.006;8.372;2022-10-23T12:54:29;5.65;;;2.40;;
14994;SDS011;7593;49.006;8.372;2022-10-23T12:56:57;4.93;;;2.30;;
14994;SDS011;7593;49.006;8.372;2022-10-23T12:59:25;4.13;;;2.40;;
14994;SDS011;7593;49.006;8.372;2022-10-23T13:02:01;3.85;;;2.40;;
14994;SDS011;7593;49.006;8.372;2022-10-23T13:04:40;6.68;;;3.70;;
14994;SDS011;7593;49.006;8.372;2022-10-23T13:07:07;4.68;;;2.80;;
14994;SDS011;7593;49.006;8.372;2022-10-23T13:09:35;8.00;;;3.13;;
14994;SDS011;7593;49.006;8.372;2022-10-23T13:12:04;6.88;;;2.88;;
14994;SDS011;7593;49.006;8.372;2022-10-23T13:14:33;6.45;;;2.50;;
14994;SDS011;7593;49.006;8.372;2022-10-23T13:17:02;7.75;;;2.90;;
14994;SDS011;7593;49.006;8.372;2022-10-23T13:19:30;4.40;;;2.80;;
14994;SDS011;7593;49.006;8.372;2022-10-23T13:21:59;4.13;;;2.70;;
14994;SDS011;7593;49.006;8.372;2022-10-23T13:24:28;5.95;;;2.70;;
14994;SDS011;7593;49.006;8.372;2022-10-23T13:26:56;6.90;;;3.00;;
14994;SDS011;7593;49.006;8.372;2022-10-23T13:29:24;4.55;;;2.65;;
14994;SDS011;7593;49.006;8.372;2022-10-23T13:31:53;5.70;;;2.83;;
14994;SDS011;7593;49.006;8.372;2022-10-23T13:34:24;4.82;;;2.10;;
14994;SDS011;7593;49.006;8.372;2022-10-23T13:36:54;4.15;;;2.50;;
14994;SDS011;7593;49.006;8.372;2022-10-23T13:39:28;6.05;;;2.30;;
14994;SDS011;7593;49.006;8.372;2022-10-23T13:41:56;3.83;;;2.00;;
14994;SDS011;7593;49.006;8.372;2022-10-23T13:44:31;6.18;;;2.15;;
14994;SDS011;7593;49.006;8.372;2022-10-23T13:46:57;9.20;;;2.55;;
14994;SDS011;7593;49.006;8.372;2022-10-23T13:49:24;4.85;;;2.40;;
14994;SDS011;7593;49.006;8.372;2022-10-23T13:51:51;3.08;;;2.03;;
14994;SDS011;7593;49.006;8.372;2022-10-23T13:54:22;5.82;;;2.83;;
14994;SDS011;7593;49.006;8.372;2022-10-23T13:56:50;4.82;;;2.53;;
14994;SDS011;7593;49.006;8.372;2022-10-23T13:59:18;3.88;;;2.88;;
14994;SDS011;7593;49.006;8.372;2022-10-23T14:01:45;9.80;;;4.25;;
14994;SDS011;7593;49.006;8.372;2022-10-23T14:04:13;3.65;;;2.60;;
14994;SDS011;7593;49.006;8.372;2022-10-23T14:06:41;6.03;;;2.50;;
14994;SDS011;7593;49.006;8.372;2022-10-23T14:09:09;5.32;;;2.25;;
14994;SDS011;7593;49.006;8.372;2022-10-23T14:11:39;2.35;;;2.15;;
14994;SDS011;7593;49.006;8.372;2022-10-23T14:14:06;4.10;;;1.92;;
14994;SDS011;7593;49.006;8.372;2022-10-23T14:16:32;4.13;;;1.88;;
14994;SDS011;7593;49.006;8.372;2022-10-23T14:18:59;4.00;;;2.22;;
14994;SDS011;7593;49.006;8.372;2022-10-23T14:21:26;2.53;;;2.03;;
14994;SDS011;7593;49.006;8.372;2022-10-23T14:23:53;4.25;;;1.85;;
14994;SDS011;7593;49.006;8.372;2022-10-23T14:26:20;5.85;;;2.30;;
14994;SDS011;7593;49.006;8.372;2022-10-23T14:28:52;2.83;;;2.15;;
14994;SDS011;7593;49.006;8.372;2022-10-23T14:31:19;5.15;;;2.08;;
14994;SDS011;7593;49.006;8.372;2022-10-23T14:33:49;4.80;;;2.55;;
14994;SDS011;7593;49.006;8.372;2022-10-23T14:36:17;5.38;;;2.33;;
14994;SDS011;7593;49.006;8.372;2022-10-23T14:38:44;5.75;;;2.90;;
14994;SDS011;7593;49.006;8.372;2022-10-23T14:41:11;5.22;;;3.80;;
14994;SDS011;7593;49.006;8.372;2022-10-23T14:43:39;10.52;;;5.10;;
14994;SDS011;7593;49.006;8.372;2022-10-23T14:46:09;8.02;;;3.15;;
14994;SDS011;7593;49.006;8.372;2022-10-23T14:48:37;5.07;;;3.28;;
14994;SDS011;7593;49.006;8.372;2022-10-23T14:51:04;4.50;;;2.33;;
14994;SDS011;7593;49.006;8.372;2022-10-23T14:53:32;6.43;;;2.80;;
14994;SDS011;7593;49.006;8.372;2022-10-23T14:56:01;8.15;;;2.83;;
14994;SDS011;7593;49.006;8.372;2022-10-23T14:58:29;5.43;;;2.78;;
14994;SDS011;7593;49.006;8.372;2022-10-23T15:00:56;8.52;;;3.10;;
14994;SDS011;7593;49.006;8.372;2022-10-23T15:03:24;6.70;;;2.80;;
14994;SDS011;7593;49.006;8.372;2022-10-23T15:05:52;8.65;;;2.70;;
14994;SDS011;7593;49.006;8.372;2022-10-23T15:08:19;6.20;;;2.83;;
14994;SDS011;7593;49.006;8.372;2022-10-23T15:10:47;6.90;;;2.45;;
14994;SDS011;7593;49.006;8.372;2022-10-23T15:13:14;6.97;;;2.67;;
14994;SDS011;7593;49.006;8.372;2022-10-23T15:15:42;3.78;;;2.53;;
14994;SDS011;7593;49.006;8.372;2022-10-23T15:18:09;10.57;;;7.65;;
14994;SDS011;7593;49.006;8.372;2022-10-23T15:20:37;6.65;;;3.90;;